<?xml version="1.0" encoding="UTF-8" standalone="no" ?>
<gpx xmlns="http://www.topografix.com/GPX/1/1" xmlns:xsi="http://www.w3.org/2001/XMLSchema-instance" xsi:schemaLocation="http://www.topografix.com/GPX/1/1 http://www.topografix.com/GPX/1/1/gpx.xsd" version="1.1" creator="VisuGPX - https://www.visugpx.com">
  <metadata>
    <name>La Paluds St Jurs</name>
    <desc><![CDATA[Randonnée 09 2017 ..............]]></desc>
  </metadata>
  <trk>
    <name><![CDATA[OR-7888223--Palud-sur-Verdon (La):La Palud St Jurs ]]></name>
    <trkseg>
      <trkpt lat="43.78047" lon="6.34292">
        <ele>922</ele>
        <time>2017-09-07T08:35:50Z</time>
      </trkpt>
      <trkpt lat="43.78205" lon="6.3451">
        <ele>911</ele>
        <time>2017-09-07T08:37:50Z</time>
      </trkpt>
      <trkpt lat="43.78406" lon="6.34535">
        <ele>922</ele>
        <time>2017-09-07T08:39:50Z</time>
      </trkpt>
      <trkpt lat="43.78608" lon="6.34432">
        <ele>929</ele>
        <time>2017-09-07T08:41:50Z</time>
      </trkpt>
      <trkpt lat="43.78713" lon="6.3445">
        <ele>935</ele>
        <time>2017-09-07T08:43:50Z</time>
      </trkpt>
      <trkpt lat="43.78874" lon="6.34411">
        <ele>947</ele>
        <time>2017-09-07T08:45:50Z</time>
      </trkpt>
      <trkpt lat="43.78936" lon="6.34411">
        <ele>954</ele>
        <time>2017-09-07T08:47:50Z</time>
      </trkpt>
      <trkpt lat="43.78997" lon="6.34412">
        <ele>964</ele>
        <time>2017-09-07T08:49:50Z</time>
      </trkpt>
      <trkpt lat="43.79095" lon="6.34469">
        <ele>972</ele>
        <time>2017-09-07T08:51:50Z</time>
      </trkpt>
      <trkpt lat="43.791" lon="6.34535">
        <ele>975</ele>
        <time>2017-09-07T08:53:50Z</time>
      </trkpt>
      <trkpt lat="43.79138" lon="6.3461">
        <ele>978</ele>
        <time>2017-09-07T08:55:50Z</time>
      </trkpt>
      <trkpt lat="43.79194" lon="6.3458">
        <ele>990</ele>
        <time>2017-09-07T08:57:50Z</time>
      </trkpt>
      <trkpt lat="43.79201" lon="6.34516">
        <ele>997</ele>
        <time>2017-09-07T08:59:50Z</time>
      </trkpt>
      <trkpt lat="43.792" lon="6.34475">
        <ele>997</ele>
        <time>2017-09-07T09:01:50Z</time>
      </trkpt>
      <trkpt lat="43.79231" lon="6.34433">
        <ele>1005</ele>
        <time>2017-09-07T09:03:50Z</time>
      </trkpt>
      <trkpt lat="43.79259" lon="6.34403">
        <ele>1011</ele>
        <time>2017-09-07T09:05:50Z</time>
      </trkpt>
      <trkpt lat="43.79302" lon="6.3432">
        <ele>1017</ele>
        <time>2017-09-07T09:07:50Z</time>
      </trkpt>
      <trkpt lat="43.79368" lon="6.34228">
        <ele>1027</ele>
        <time>2017-09-07T09:09:50Z</time>
      </trkpt>
      <trkpt lat="43.7945" lon="6.34126">
        <ele>1041</ele>
        <time>2017-09-07T09:11:50Z</time>
      </trkpt>
      <trkpt lat="43.79461" lon="6.34091">
        <ele>1043</ele>
        <time>2017-09-07T09:13:50Z</time>
      </trkpt>
      <trkpt lat="43.79536" lon="6.34094">
        <ele>1048</ele>
        <time>2017-09-07T09:15:50Z</time>
      </trkpt>
      <trkpt lat="43.7957" lon="6.34088">
        <ele>1049</ele>
        <time>2017-09-07T09:17:50Z</time>
      </trkpt>
      <trkpt lat="43.79614" lon="6.34005">
        <ele>1047</ele>
        <time>2017-09-07T09:19:50Z</time>
      </trkpt>
      <trkpt lat="43.79695" lon="6.34029">
        <ele>1047</ele>
        <time>2017-09-07T09:21:50Z</time>
      </trkpt>
      <trkpt lat="43.79747" lon="6.33977">
        <ele>1046</ele>
        <time>2017-09-07T09:23:50Z</time>
      </trkpt>
      <trkpt lat="43.79779" lon="6.33936">
        <ele>1044</ele>
        <time>2017-09-07T09:25:50Z</time>
      </trkpt>
      <trkpt lat="43.79911" lon="6.33882">
        <ele>1034</ele>
        <time>2017-09-07T09:27:50Z</time>
      </trkpt>
      <trkpt lat="43.80016" lon="6.33876">
        <ele>1015</ele>
        <time>2017-09-07T09:29:50Z</time>
      </trkpt>
      <trkpt lat="43.79933" lon="6.34226">
        <ele>1018</ele>
        <time>2017-09-07T09:31:50Z</time>
      </trkpt>
      <trkpt lat="43.80062" lon="6.34254">
        <ele>1014</ele>
        <time>2017-09-07T09:33:50Z</time>
      </trkpt>
      <trkpt lat="43.80134" lon="6.343">
        <ele>1011</ele>
        <time>2017-09-07T09:35:50Z</time>
      </trkpt>
      <trkpt lat="43.80199" lon="6.34341">
        <ele>1008</ele>
        <time>2017-09-07T09:37:50Z</time>
      </trkpt>
      <trkpt lat="43.80333" lon="6.3438">
        <ele>1013</ele>
        <time>2017-09-07T09:39:50Z</time>
      </trkpt>
      <trkpt lat="43.80397" lon="6.34364">
        <ele>1016</ele>
        <time>2017-09-07T09:41:50Z</time>
      </trkpt>
      <trkpt lat="43.80448" lon="6.34299">
        <ele>1015</ele>
        <time>2017-09-07T09:43:50Z</time>
      </trkpt>
      <trkpt lat="43.80687" lon="6.33509">
        <ele>1011</ele>
        <time>2017-09-07T09:45:50Z</time>
      </trkpt>
      <trkpt lat="43.80921" lon="6.33307">
        <ele>1036</ele>
        <time>2017-09-07T09:47:50Z</time>
      </trkpt>
      <trkpt lat="43.81046" lon="6.33422">
        <ele>1056</ele>
        <time>2017-09-07T09:49:50Z</time>
      </trkpt>
      <trkpt lat="43.81104" lon="6.33638">
        <ele>1084</ele>
        <time>2017-09-07T09:51:50Z</time>
      </trkpt>
      <trkpt lat="43.81111" lon="6.33473">
        <ele>1083</ele>
        <time>2017-09-07T09:53:50Z</time>
      </trkpt>
      <trkpt lat="43.81156" lon="6.33567">
        <ele>1105</ele>
        <time>2017-09-07T09:55:50Z</time>
      </trkpt>
      <trkpt lat="43.81149" lon="6.33607">
        <ele>1103</ele>
        <time>2017-09-07T09:57:50Z</time>
      </trkpt>
      <trkpt lat="43.8117" lon="6.33788">
        <ele>1119</ele>
        <time>2017-09-07T09:59:50Z</time>
      </trkpt>
      <trkpt lat="43.81198" lon="6.33786">
        <ele>1125</ele>
        <time>2017-09-07T10:01:50Z</time>
      </trkpt>
      <trkpt lat="43.81229" lon="6.33691">
        <ele>1131</ele>
        <time>2017-09-07T10:03:50Z</time>
      </trkpt>
      <trkpt lat="43.81283" lon="6.33803">
        <ele>1131</ele>
        <time>2017-09-07T10:05:50Z</time>
      </trkpt>
      <trkpt lat="43.81367" lon="6.33648">
        <ele>1126</ele>
        <time>2017-09-07T10:07:50Z</time>
      </trkpt>
      <trkpt lat="43.8151" lon="6.33506">
        <ele>1111</ele>
        <time>2017-09-07T10:09:50Z</time>
      </trkpt>
      <trkpt lat="43.81641" lon="6.33395">
        <ele>1112</ele>
        <time>2017-09-07T10:11:50Z</time>
      </trkpt>
      <trkpt lat="43.81792" lon="6.33348">
        <ele>1107</ele>
        <time>2017-09-07T10:13:50Z</time>
      </trkpt>
      <trkpt lat="43.81877" lon="6.3325">
        <ele>1116</ele>
        <time>2017-09-07T10:15:50Z</time>
      </trkpt>
      <trkpt lat="43.81947" lon="6.33124">
        <ele>1126</ele>
        <time>2017-09-07T10:17:50Z</time>
      </trkpt>
      <trkpt lat="43.8201" lon="6.33038">
        <ele>1104</ele>
        <time>2017-09-07T10:19:50Z</time>
      </trkpt>
      <trkpt lat="43.82072" lon="6.32925">
        <ele>1104</ele>
        <time>2017-09-07T10:21:50Z</time>
      </trkpt>
      <trkpt lat="43.82124" lon="6.32866">
        <ele>1098</ele>
        <time>2017-09-07T10:23:50Z</time>
      </trkpt>
      <trkpt lat="43.82189" lon="6.32794">
        <ele>1096</ele>
        <time>2017-09-07T10:25:50Z</time>
      </trkpt>
      <trkpt lat="43.82263" lon="6.3273">
        <ele>1093</ele>
        <time>2017-09-07T10:27:50Z</time>
      </trkpt>
      <trkpt lat="43.82395" lon="6.32621">
        <ele>1089</ele>
        <time>2017-09-07T10:29:50Z</time>
      </trkpt>
      <trkpt lat="43.82494" lon="6.3247">
        <ele>1095</ele>
        <time>2017-09-07T10:31:50Z</time>
      </trkpt>
      <trkpt lat="43.82644" lon="6.3235">
        <ele>1088</ele>
        <time>2017-09-07T10:33:50Z</time>
      </trkpt>
      <trkpt lat="43.82862" lon="6.32103">
        <ele>1090</ele>
        <time>2017-09-07T10:35:50Z</time>
      </trkpt>
      <trkpt lat="43.82957" lon="6.32032">
        <ele>1087</ele>
        <time>2017-09-07T10:37:50Z</time>
      </trkpt>
      <trkpt lat="43.83044" lon="6.32045">
        <ele>1070</ele>
        <time>2017-09-07T10:39:50Z</time>
      </trkpt>
      <trkpt lat="43.83109" lon="6.31911">
        <ele>1086</ele>
        <time>2017-09-07T10:41:50Z</time>
      </trkpt>
      <trkpt lat="43.83181" lon="6.31825">
        <ele>1085</ele>
        <time>2017-09-07T10:43:50Z</time>
      </trkpt>
      <trkpt lat="43.83253" lon="6.31749">
        <ele>1084</ele>
        <time>2017-09-07T10:45:50Z</time>
      </trkpt>
      <trkpt lat="43.83329" lon="6.31678">
        <ele>1074</ele>
        <time>2017-09-07T10:47:50Z</time>
      </trkpt>
      <trkpt lat="43.83342" lon="6.31654">
        <ele>1075</ele>
        <time>2017-09-07T10:49:50Z</time>
      </trkpt>
      <trkpt lat="43.83338" lon="6.31624">
        <ele>1078</ele>
        <time>2017-09-07T10:51:50Z</time>
      </trkpt>
      <trkpt lat="43.83364" lon="6.31599">
        <ele>1080</ele>
        <time>2017-09-07T10:53:50Z</time>
      </trkpt>
      <trkpt lat="43.83382" lon="6.31572">
        <ele>1082</ele>
        <time>2017-09-07T10:55:50Z</time>
      </trkpt>
      <trkpt lat="43.8341" lon="6.31582">
        <ele>1078</ele>
        <time>2017-09-07T10:57:50Z</time>
      </trkpt>
      <trkpt lat="43.83479" lon="6.31566">
        <ele>1087</ele>
        <time>2017-09-07T10:59:50Z</time>
      </trkpt>
      <trkpt lat="43.83532" lon="6.31535">
        <ele>1094</ele>
        <time>2017-09-07T11:01:50Z</time>
      </trkpt>
      <trkpt lat="43.83571" lon="6.31494">
        <ele>1101</ele>
        <time>2017-09-07T11:03:50Z</time>
      </trkpt>
      <trkpt lat="43.83569" lon="6.3153">
        <ele>1103</ele>
        <time>2017-09-07T11:05:50Z</time>
      </trkpt>
      <trkpt lat="43.83576" lon="6.31556">
        <ele>1105</ele>
        <time>2017-09-07T11:07:50Z</time>
      </trkpt>
      <trkpt lat="43.83647" lon="6.31565">
        <ele>1119</ele>
        <time>2017-09-07T11:09:50Z</time>
      </trkpt>
      <trkpt lat="43.83677" lon="6.31614">
        <ele>1124</ele>
        <time>2017-09-07T11:11:50Z</time>
      </trkpt>
      <trkpt lat="43.83719" lon="6.3161">
        <ele>1130</ele>
        <time>2017-09-07T11:13:50Z</time>
      </trkpt>
      <trkpt lat="43.83743" lon="6.31595">
        <ele>1132</ele>
        <time>2017-09-07T11:15:50Z</time>
      </trkpt>
      <trkpt lat="43.83776" lon="6.31649">
        <ele>1137</ele>
        <time>2017-09-07T11:17:50Z</time>
      </trkpt>
      <trkpt lat="43.83792" lon="6.31737">
        <ele>1144</ele>
        <time>2017-09-07T11:19:50Z</time>
      </trkpt>
      <trkpt lat="43.83752" lon="6.31895">
        <ele>1157</ele>
        <time>2017-09-07T11:21:50Z</time>
      </trkpt>
      <trkpt lat="43.83701" lon="6.32021">
        <ele>1165</ele>
        <time>2017-09-07T11:23:50Z</time>
      </trkpt>
      <trkpt lat="43.83665" lon="6.32046">
        <ele>1164</ele>
        <time>2017-09-07T11:25:50Z</time>
      </trkpt>
      <trkpt lat="43.83653" lon="6.32076">
        <ele>1164</ele>
        <time>2017-09-07T11:27:50Z</time>
      </trkpt>
      <trkpt lat="43.83703" lon="6.32073">
        <ele>1171</ele>
        <time>2017-09-07T11:29:50Z</time>
      </trkpt>
      <trkpt lat="43.83757" lon="6.32021">
        <ele>1171</ele>
        <time>2017-09-07T11:31:50Z</time>
      </trkpt>
      <trkpt lat="43.83774" lon="6.32035">
        <ele>1173</ele>
        <time>2017-09-07T11:33:50Z</time>
      </trkpt>
      <trkpt lat="43.83743" lon="6.32142">
        <ele>1183</ele>
        <time>2017-09-07T11:35:50Z</time>
      </trkpt>
      <trkpt lat="43.83739" lon="6.32237">
        <ele>1191</ele>
        <time>2017-09-07T11:37:50Z</time>
      </trkpt>
      <trkpt lat="43.8373" lon="6.32342">
        <ele>1195</ele>
        <time>2017-09-07T11:39:50Z</time>
      </trkpt>
      <trkpt lat="43.83751" lon="6.32677">
        <ele>1223</ele>
        <time>2017-09-07T11:41:50Z</time>
      </trkpt>
      <trkpt lat="43.83742" lon="6.32769">
        <ele>1233</ele>
        <time>2017-09-07T11:43:50Z</time>
      </trkpt>
      <trkpt lat="43.83787" lon="6.32641">
        <ele>1229</ele>
        <time>2017-09-07T11:45:50Z</time>
      </trkpt>
      <trkpt lat="43.83875" lon="6.32605">
        <ele>1238</ele>
        <time>2017-09-07T11:47:50Z</time>
      </trkpt>
      <trkpt lat="43.83922" lon="6.32565">
        <ele>1236</ele>
        <time>2017-09-07T11:49:50Z</time>
      </trkpt>
      <trkpt lat="43.84005" lon="6.32556">
        <ele>1252</ele>
        <time>2017-09-07T11:51:50Z</time>
      </trkpt>
      <trkpt lat="43.83983" lon="6.32431">
        <ele>1245</ele>
        <time>2017-09-07T11:53:50Z</time>
      </trkpt>
      <trkpt lat="43.84021" lon="6.32323">
        <ele>1251</ele>
        <time>2017-09-07T11:55:50Z</time>
      </trkpt>
      <trkpt lat="43.84027" lon="6.3226">
        <ele>1250</ele>
        <time>2017-09-07T11:57:50Z</time>
      </trkpt>
      <trkpt lat="43.84052" lon="6.32224">
        <ele>1255</ele>
        <time>2017-09-07T11:59:50Z</time>
      </trkpt>
      <trkpt lat="43.84028" lon="6.31932">
        <ele>1240</ele>
        <time>2017-09-07T12:01:50Z</time>
      </trkpt>
      <trkpt lat="43.84094" lon="6.31844">
        <ele>1236</ele>
        <time>2017-09-07T12:03:50Z</time>
      </trkpt>
      <trkpt lat="43.84151" lon="6.31855">
        <ele>1243</ele>
        <time>2017-09-07T12:05:50Z</time>
      </trkpt>
      <trkpt lat="43.84258" lon="6.31844">
        <ele>1235</ele>
        <time>2017-09-07T12:07:50Z</time>
      </trkpt>
      <trkpt lat="43.8437" lon="6.3179">
        <ele>1217</ele>
        <time>2017-09-07T12:09:50Z</time>
      </trkpt>
      <trkpt lat="43.84439" lon="6.31779">
        <ele>1216</ele>
        <time>2017-09-07T12:11:50Z</time>
      </trkpt>
      <trkpt lat="43.84454" lon="6.31726">
        <ele>1207</ele>
        <time>2017-09-07T12:13:50Z</time>
      </trkpt>
      <trkpt lat="43.84512" lon="6.31733">
        <ele>1214</ele>
        <time>2017-09-07T12:15:50Z</time>
      </trkpt>
      <trkpt lat="43.84537" lon="6.31692">
        <ele>1209</ele>
        <time>2017-09-07T12:17:50Z</time>
      </trkpt>
      <trkpt lat="43.84598" lon="6.31661">
        <ele>1206</ele>
        <time>2017-09-07T12:19:50Z</time>
      </trkpt>
      <trkpt lat="43.84691" lon="6.31683">
        <ele>1209</ele>
        <time>2017-09-07T12:21:50Z</time>
      </trkpt>
      <trkpt lat="43.84762" lon="6.31727">
        <ele>1216</ele>
        <time>2017-09-07T12:23:50Z</time>
      </trkpt>
      <trkpt lat="43.84724" lon="6.31578">
        <ele>1204</ele>
        <time>2017-09-07T12:25:50Z</time>
      </trkpt>
      <trkpt lat="43.84789" lon="6.31491">
        <ele>1210</ele>
        <time>2017-09-07T12:27:50Z</time>
      </trkpt>
      <trkpt lat="43.84832" lon="6.3146">
        <ele>1213</ele>
        <time>2017-09-07T12:29:50Z</time>
      </trkpt>
      <trkpt lat="43.84869" lon="6.31338">
        <ele>1206</ele>
        <time>2017-09-07T12:31:50Z</time>
      </trkpt>
      <trkpt lat="43.84911" lon="6.31257">
        <ele>1210</ele>
        <time>2017-09-07T12:33:50Z</time>
      </trkpt>
      <trkpt lat="43.84928" lon="6.31143">
        <ele>1208</ele>
        <time>2017-09-07T12:35:50Z</time>
      </trkpt>
      <trkpt lat="43.85005" lon="6.31093">
        <ele>1220</ele>
        <time>2017-09-07T12:37:50Z</time>
      </trkpt>
      <trkpt lat="43.84959" lon="6.31036">
        <ele>1218</ele>
        <time>2017-09-07T12:39:50Z</time>
      </trkpt>
      <trkpt lat="43.8493" lon="6.31027">
        <ele>1214</ele>
        <time>2017-09-07T12:41:50Z</time>
      </trkpt>
      <trkpt lat="43.84877" lon="6.3096">
        <ele>1217</ele>
        <time>2017-09-07T12:43:50Z</time>
      </trkpt>
      <trkpt lat="43.84845" lon="6.30857">
        <ele>1225</ele>
        <time>2017-09-07T12:45:50Z</time>
      </trkpt>
      <trkpt lat="43.84824" lon="6.30808">
        <ele>1230</ele>
        <time>2017-09-07T12:47:50Z</time>
      </trkpt>
      <trkpt lat="43.84903" lon="6.30889">
        <ele>1235</ele>
        <time>2017-09-07T12:49:50Z</time>
      </trkpt>
      <trkpt lat="43.84981" lon="6.30934">
        <ele>1245</ele>
        <time>2017-09-07T12:51:50Z</time>
      </trkpt>
      <trkpt lat="43.84942" lon="6.3088">
        <ele>1246</ele>
        <time>2017-09-07T12:53:50Z</time>
      </trkpt>
      <trkpt lat="43.84901" lon="6.30761">
        <ele>1257</ele>
        <time>2017-09-07T12:55:50Z</time>
      </trkpt>
      <trkpt lat="43.84852" lon="6.3069">
        <ele>1262</ele>
        <time>2017-09-07T12:57:50Z</time>
      </trkpt>
      <trkpt lat="43.84822" lon="6.30679">
        <ele>1261</ele>
        <time>2017-09-07T12:59:50Z</time>
      </trkpt>
      <trkpt lat="43.84792" lon="6.30631">
        <ele>1272</ele>
        <time>2017-09-07T13:01:50Z</time>
      </trkpt>
      <trkpt lat="43.84628" lon="6.30702">
        <ele>1269</ele>
        <time>2017-09-07T13:03:50Z</time>
      </trkpt>
      <trkpt lat="43.8475" lon="6.30552">
        <ele>1284</ele>
        <time>2017-09-07T13:05:50Z</time>
      </trkpt>
      <trkpt lat="43.84799" lon="6.30444">
        <ele>1289</ele>
        <time>2017-09-07T13:07:50Z</time>
      </trkpt>
      <trkpt lat="43.84862" lon="6.30358">
        <ele>1291</ele>
        <time>2017-09-07T13:09:50Z</time>
      </trkpt>
      <trkpt lat="43.84984" lon="6.30052">
        <ele>1290</ele>
        <time>2017-09-07T13:11:50Z</time>
      </trkpt>
      <trkpt lat="43.85207" lon="6.29945">
        <ele>1288</ele>
        <time>2017-09-07T13:13:50Z</time>
      </trkpt>
      <trkpt lat="43.8521" lon="6.29835">
        <ele>1282</ele>
        <time>2017-09-07T13:15:50Z</time>
      </trkpt>
      <trkpt lat="43.85335" lon="6.29741">
        <ele>1285</ele>
        <time>2017-09-07T13:17:50Z</time>
      </trkpt>
      <trkpt lat="43.85328" lon="6.2967">
        <ele>1291</ele>
        <time>2017-09-07T13:19:50Z</time>
      </trkpt>
      <trkpt lat="43.85349" lon="6.29582">
        <ele>1302</ele>
        <time>2017-09-07T13:21:50Z</time>
      </trkpt>
      <trkpt lat="43.85399" lon="6.29456">
        <ele>1322</ele>
        <time>2017-09-07T13:23:50Z</time>
      </trkpt>
      <trkpt lat="43.85512" lon="6.29357">
        <ele>1338</ele>
        <time>2017-09-07T13:25:50Z</time>
      </trkpt>
      <trkpt lat="43.85522" lon="6.29258">
        <ele>1349</ele>
        <time>2017-09-07T13:27:50Z</time>
      </trkpt>
      <trkpt lat="43.85654" lon="6.29054">
        <ele>1346</ele>
        <time>2017-09-07T13:29:50Z</time>
      </trkpt>
      <trkpt lat="43.85631" lon="6.28956">
        <ele>1350</ele>
        <time>2017-09-07T13:31:50Z</time>
      </trkpt>
      <trkpt lat="43.8553" lon="6.28908">
        <ele>1349</ele>
        <time>2017-09-07T13:33:50Z</time>
      </trkpt>
      <trkpt lat="43.8543" lon="6.28878">
        <ele>1363</ele>
        <time>2017-09-07T13:35:50Z</time>
      </trkpt>
      <trkpt lat="43.85278" lon="6.28917">
        <ele>1385</ele>
        <time>2017-09-07T13:37:50Z</time>
      </trkpt>
      <trkpt lat="43.85159" lon="6.28981">
        <ele>1398</ele>
        <time>2017-09-07T13:39:50Z</time>
      </trkpt>
      <trkpt lat="43.85068" lon="6.29003">
        <ele>1412</ele>
        <time>2017-09-07T13:41:50Z</time>
      </trkpt>
      <trkpt lat="43.84939" lon="6.28981">
        <ele>1432</ele>
        <time>2017-09-07T13:43:50Z</time>
      </trkpt>
      <trkpt lat="43.84818" lon="6.29048">
        <ele>1438</ele>
        <time>2017-09-07T13:45:50Z</time>
      </trkpt>
      <trkpt lat="43.84715" lon="6.28949">
        <ele>1465</ele>
        <time>2017-09-07T13:47:50Z</time>
      </trkpt>
      <trkpt lat="43.8471" lon="6.28889">
        <ele>1476</ele>
        <time>2017-09-07T13:49:50Z</time>
      </trkpt>
      <trkpt lat="43.84698" lon="6.28812">
        <ele>1490</ele>
        <time>2017-09-07T13:51:50Z</time>
      </trkpt>
      <trkpt lat="43.84888" lon="6.28576">
        <ele>1521</ele>
        <time>2017-09-07T13:53:50Z</time>
      </trkpt>
      <trkpt lat="43.851" lon="6.28314">
        <ele>1540</ele>
        <time>2017-09-07T13:55:50Z</time>
      </trkpt>
      <trkpt lat="43.85235" lon="6.28217">
        <ele>1535</ele>
        <time>2017-09-07T13:57:50Z</time>
      </trkpt>
      <trkpt lat="43.85317" lon="6.28213">
        <ele>1537</ele>
        <time>2017-09-07T13:59:50Z</time>
      </trkpt>
      <trkpt lat="43.85328" lon="6.28148">
        <ele>1533</ele>
        <time>2017-09-07T14:01:50Z</time>
      </trkpt>
      <trkpt lat="43.85481" lon="6.27993">
        <ele>1524</ele>
        <time>2017-09-07T14:03:50Z</time>
      </trkpt>
      <trkpt lat="43.85615" lon="6.27892">
        <ele>1520</ele>
        <time>2017-09-07T14:05:50Z</time>
      </trkpt>
      <trkpt lat="43.85635" lon="6.27775">
        <ele>1505</ele>
        <time>2017-09-07T14:07:50Z</time>
      </trkpt>
      <trkpt lat="43.85798" lon="6.27737">
        <ele>1512</ele>
        <time>2017-09-07T14:09:50Z</time>
      </trkpt>
      <trkpt lat="43.86022" lon="6.27529">
        <ele>1498</ele>
        <time>2017-09-07T14:11:50Z</time>
      </trkpt>
      <trkpt lat="43.86144" lon="6.27336">
        <ele>1486</ele>
        <time>2017-09-07T14:13:50Z</time>
      </trkpt>
      <trkpt lat="43.86381" lon="6.27162">
        <ele>1482</ele>
        <time>2017-09-07T14:15:50Z</time>
      </trkpt>
      <trkpt lat="43.8655" lon="6.27093">
        <ele>1481</ele>
        <time>2017-09-07T14:17:50Z</time>
      </trkpt>
      <trkpt lat="43.86725" lon="6.27001">
        <ele>1474</ele>
        <time>2017-09-07T14:19:50Z</time>
      </trkpt>
      <trkpt lat="43.86788" lon="6.26998">
        <ele>1481</ele>
        <time>2017-09-07T14:21:50Z</time>
      </trkpt>
      <trkpt lat="43.86885" lon="6.26865">
        <ele>1465</ele>
        <time>2017-09-07T14:23:50Z</time>
      </trkpt>
      <trkpt lat="43.86973" lon="6.26905">
        <ele>1475</ele>
        <time>2017-09-07T14:25:50Z</time>
      </trkpt>
      <trkpt lat="43.87283" lon="6.26853">
        <ele>1467</ele>
        <time>2017-09-07T14:27:50Z</time>
      </trkpt>
      <trkpt lat="43.87592" lon="6.26711">
        <ele>1476</ele>
        <time>2017-09-07T14:29:50Z</time>
      </trkpt>
      <trkpt lat="43.87829" lon="6.26451">
        <ele>1470</ele>
        <time>2017-09-07T14:31:50Z</time>
      </trkpt>
      <trkpt lat="43.88081" lon="6.26136">
        <ele>1444</ele>
        <time>2017-09-07T14:33:50Z</time>
      </trkpt>
      <trkpt lat="43.88313" lon="6.25859">
        <ele>1433</ele>
        <time>2017-09-07T14:35:50Z</time>
      </trkpt>
      <trkpt lat="43.88377" lon="6.2573">
        <ele>1419</ele>
        <time>2017-09-07T14:37:50Z</time>
      </trkpt>
      <trkpt lat="43.88428" lon="6.2569">
        <ele>1419</ele>
        <time>2017-09-07T14:39:50Z</time>
      </trkpt>
      <trkpt lat="43.88505" lon="6.25546">
        <ele>1408</ele>
        <time>2017-09-07T14:41:50Z</time>
      </trkpt>
      <trkpt lat="43.8855" lon="6.25471">
        <ele>1403</ele>
        <time>2017-09-07T14:43:50Z</time>
      </trkpt>
      <trkpt lat="43.88766" lon="6.2539">
        <ele>1422</ele>
        <time>2017-09-07T14:45:50Z</time>
      </trkpt>
      <trkpt lat="43.88998" lon="6.25253">
        <ele>1438</ele>
        <time>2017-09-07T14:47:50Z</time>
      </trkpt>
      <trkpt lat="43.8919" lon="6.25077">
        <ele>1457</ele>
        <time>2017-09-07T14:49:50Z</time>
      </trkpt>
      <trkpt lat="43.89278" lon="6.24907">
        <ele>1467</ele>
        <time>2017-09-07T14:51:50Z</time>
      </trkpt>
      <trkpt lat="43.89359" lon="6.24934">
        <ele>1470</ele>
        <time>2017-09-07T14:53:50Z</time>
      </trkpt>
      <trkpt lat="43.89499" lon="6.24904">
        <ele>1462</ele>
        <time>2017-09-07T14:55:50Z</time>
      </trkpt>
      <trkpt lat="43.89618" lon="6.24819">
        <ele>1447</ele>
        <time>2017-09-07T14:57:50Z</time>
      </trkpt>
      <trkpt lat="43.89769" lon="6.24767">
        <ele>1444</ele>
        <time>2017-09-07T14:59:50Z</time>
      </trkpt>
      <trkpt lat="43.89891" lon="6.24636">
        <ele>1430</ele>
        <time>2017-09-07T15:01:50Z</time>
      </trkpt>
      <trkpt lat="43.90077" lon="6.24618">
        <ele>1451</ele>
        <time>2017-09-07T15:03:50Z</time>
      </trkpt>
      <trkpt lat="43.90259" lon="6.2452">
        <ele>1459</ele>
        <time>2017-09-07T15:05:50Z</time>
      </trkpt>
      <trkpt lat="43.90409" lon="6.24404">
        <ele>1475</ele>
        <time>2017-09-07T15:07:50Z</time>
      </trkpt>
      <trkpt lat="43.90471" lon="6.24314">
        <ele>1474</ele>
        <time>2017-09-07T15:09:50Z</time>
      </trkpt>
      <trkpt lat="43.9051" lon="6.24304">
        <ele>1475</ele>
        <time>2017-09-07T15:11:50Z</time>
      </trkpt>
      <trkpt lat="43.9064" lon="6.24413">
        <ele>1445</ele>
        <time>2017-09-07T15:13:50Z</time>
      </trkpt>
      <trkpt lat="43.9061" lon="6.24299">
        <ele>1447</ele>
        <time>2017-09-07T15:15:50Z</time>
      </trkpt>
      <trkpt lat="43.90654" lon="6.24156">
        <ele>1426</ele>
        <time>2017-09-07T15:17:50Z</time>
      </trkpt>
      <trkpt lat="43.90623" lon="6.23932">
        <ele>1406</ele>
        <time>2017-09-07T15:19:50Z</time>
      </trkpt>
      <trkpt lat="43.90594" lon="6.23875">
        <ele>1411</ele>
        <time>2017-09-07T15:21:50Z</time>
      </trkpt>
      <trkpt lat="43.90687" lon="6.23817">
        <ele>1388</ele>
        <time>2017-09-07T15:23:50Z</time>
      </trkpt>
      <trkpt lat="43.90799" lon="6.23747">
        <ele>1366</ele>
        <time>2017-09-07T15:25:50Z</time>
      </trkpt>
      <trkpt lat="43.90888" lon="6.23569">
        <ele>1348</ele>
        <time>2017-09-07T15:27:50Z</time>
      </trkpt>
      <trkpt lat="43.90962" lon="6.23414">
        <ele>1325</ele>
        <time>2017-09-07T15:29:50Z</time>
      </trkpt>
      <trkpt lat="43.91079" lon="6.23372">
        <ele>1316</ele>
        <time>2017-09-07T15:31:50Z</time>
      </trkpt>
      <trkpt lat="43.90912" lon="6.23235">
        <ele>1300</ele>
        <time>2017-09-07T15:33:50Z</time>
      </trkpt>
      <trkpt lat="43.90851" lon="6.23128">
        <ele>1278</ele>
        <time>2017-09-07T15:35:50Z</time>
      </trkpt>
      <trkpt lat="43.90729" lon="6.23029">
        <ele>1278</ele>
        <time>2017-09-07T15:37:50Z</time>
      </trkpt>
      <trkpt lat="43.9061" lon="6.22786">
        <ele>1223</ele>
        <time>2017-09-07T15:39:50Z</time>
      </trkpt>
      <trkpt lat="43.90485" lon="6.22641">
        <ele>1185</ele>
        <time>2017-09-07T15:41:50Z</time>
      </trkpt>
      <trkpt lat="43.90296" lon="6.22497">
        <ele>1174</ele>
        <time>2017-09-07T15:43:50Z</time>
      </trkpt>
      <trkpt lat="43.90416" lon="6.22478">
        <ele>1143</ele>
        <time>2017-09-07T15:45:50Z</time>
      </trkpt>
      <trkpt lat="43.90383" lon="6.22396">
        <ele>1135</ele>
        <time>2017-09-07T15:47:50Z</time>
      </trkpt>
      <trkpt lat="43.90287" lon="6.22066">
        <ele>1091</ele>
        <time>2017-09-07T15:49:50Z</time>
      </trkpt>
      <trkpt lat="43.90174" lon="6.21973">
        <ele>1086</ele>
        <time>2017-09-07T15:51:50Z</time>
      </trkpt>
      <trkpt lat="43.90167" lon="6.21825">
        <ele>1075</ele>
        <time>2017-09-07T15:53:50Z</time>
      </trkpt>
      <trkpt lat="43.90122" lon="6.21706">
        <ele>1062</ele>
        <time>2017-09-07T15:55:50Z</time>
      </trkpt>
      <trkpt lat="43.9017" lon="6.21596">
        <ele>1057</ele>
        <time>2017-09-07T15:57:50Z</time>
      </trkpt>
      <trkpt lat="43.90132" lon="6.2149">
        <ele>1057</ele>
        <time>2017-09-07T15:59:50Z</time>
      </trkpt>
      <trkpt lat="43.90125" lon="6.21444">
        <ele>1050</ele>
        <time>2017-09-07T16:01:50Z</time>
      </trkpt>
      <trkpt lat="43.90132" lon="6.21389">
        <ele>1039</ele>
        <time>2017-09-07T16:03:50Z</time>
      </trkpt>
      <trkpt lat="43.90106" lon="6.21299">
        <ele>1035</ele>
        <time>2017-09-07T16:05:50Z</time>
      </trkpt>
      <trkpt lat="43.90111" lon="6.21241">
        <ele>1021</ele>
        <time>2017-09-07T16:07:50Z</time>
      </trkpt>
      <trkpt lat="43.90026" lon="6.21179">
        <ele>1020</ele>
        <time>2017-09-07T16:09:50Z</time>
      </trkpt>
      <trkpt lat="43.90029" lon="6.21145">
        <ele>1013</ele>
        <time>2017-09-07T16:11:50Z</time>
      </trkpt>
      <trkpt lat="43.90022" lon="6.21094">
        <ele>1009</ele>
        <time>2017-09-07T16:13:50Z</time>
      </trkpt>
      <trkpt lat="43.90051" lon="6.20995">
        <ele>994</ele>
        <time>2017-09-07T16:15:50Z</time>
      </trkpt>
      <trkpt lat="43.90059" lon="6.20956">
        <ele>991</ele>
        <time>2017-09-07T16:17:50Z</time>
      </trkpt>
      <trkpt lat="43.90035" lon="6.20881">
        <ele>985</ele>
        <time>2017-09-07T16:19:50Z</time>
      </trkpt>
      <trkpt lat="43.90028" lon="6.20816">
        <ele>982</ele>
        <time>2017-09-07T16:21:50Z</time>
      </trkpt>
      <trkpt lat="43.89958" lon="6.20765">
        <ele>974</ele>
        <time>2017-09-07T16:23:50Z</time>
      </trkpt>
      <trkpt lat="43.89952" lon="6.20674">
        <ele>982</ele>
        <time>2017-09-07T16:25:50Z</time>
      </trkpt>
      <trkpt lat="43.89911" lon="6.20657">
        <ele>974</ele>
        <time>2017-09-07T16:27:50Z</time>
      </trkpt>
      <trkpt lat="43.89888" lon="6.20588">
        <ele>967</ele>
        <time>2017-09-07T16:29:50Z</time>
      </trkpt>
      <trkpt lat="43.8985" lon="6.20513">
        <ele>957</ele>
        <time>2017-09-07T16:31:50Z</time>
      </trkpt>
      <trkpt lat="43.89828" lon="6.20472">
        <ele>956</ele>
        <time>2017-09-07T16:33:50Z</time>
      </trkpt>
      <trkpt lat="43.89839" lon="6.20416">
        <ele>953</ele>
        <time>2017-09-07T16:35:50Z</time>
      </trkpt>
      <trkpt lat="43.89856" lon="6.20308">
        <ele>931</ele>
        <time>2017-09-07T16:37:50Z</time>
      </trkpt>
      <trkpt lat="43.89885" lon="6.20207">
        <ele>915</ele>
        <time>2017-09-07T16:39:50Z</time>
      </trkpt>
      <trkpt lat="43.899" lon="6.20172">
        <ele>910</ele>
        <time>2017-09-07T16:41:50Z</time>
      </trkpt>
      <trkpt lat="43.89906" lon="6.19987">
        <ele>895</ele>
        <time>2017-09-07T16:43:50Z</time>
      </trkpt>
      <trkpt lat="43.89873" lon="6.19953">
        <ele>889</ele>
        <time>2017-09-07T16:45:50Z</time>
      </trkpt>
      <trkpt lat="43.89878" lon="6.19879">
        <ele>882</ele>
        <time>2017-09-07T16:47:50Z</time>
      </trkpt>
      <trkpt lat="43.89893" lon="6.19833">
        <ele>877</ele>
        <time>2017-09-07T16:49:50Z</time>
      </trkpt>
      <trkpt lat="43.8988" lon="6.19835">
        <ele>876</ele>
        <time>2017-09-07T16:51:50Z</time>
      </trkpt>
      <trkpt lat="43.89846" lon="6.19926">
        <ele>884</ele>
        <time>2017-09-07T16:53:50Z</time>
      </trkpt>
      <trkpt lat="43.89847" lon="6.19778">
        <ele>867</ele>
        <time>2017-09-07T16:55:50Z</time>
      </trkpt>
      <trkpt lat="43.89805" lon="6.19679">
        <ele>854</ele>
        <time>2017-09-07T16:57:50Z</time>
      </trkpt>
      <trkpt lat="43.89834" lon="6.19519">
        <ele>846</ele>
        <time>2017-09-07T16:59:50Z</time>
      </trkpt>
      <trkpt lat="43.89847" lon="6.19353">
        <ele>837</ele>
        <time>2017-09-07T17:01:50Z</time>
      </trkpt>
      <trkpt lat="43.89895" lon="6.19296">
        <ele>834</ele>
        <time>2017-09-07T17:03:50Z</time>
      </trkpt>
      <trkpt lat="43.89929" lon="6.19185">
        <ele>840</ele>
        <time>2017-09-07T17:05:50Z</time>
      </trkpt>
      <trkpt lat="43.89932" lon="6.18888">
        <ele>848</ele>
        <time>2017-09-07T17:07:50Z</time>
      </trkpt>
      <trkpt lat="43.90018" lon="6.1864">
        <ele>842</ele>
        <time>2017-09-07T17:09:50Z</time>
      </trkpt>
      <trkpt lat="43.89843" lon="6.18029">
        <ele>828</ele>
        <time>2017-09-07T17:11:50Z</time>
      </trkpt>
    </trkseg>
  </trk>
</gpx>